Time;durP1;ratioP1;P1;durP2;ratioP2;P2;SDS_P1;SDS_P2;PMS_P1;PMS_P2;Temp;Humidity;BMP_temperature;BMP_pressure;BME280_temperature;BME280_humidity;BME280_pressure;Samples;Min_cycle;Max_cycle;Signal;HPM_P1;HPM_P2
2022/07/22 00:01:15;;;;;;;;;;;614.60;1689.60;;;;;;5092839;28;19927;-59
2022/07/22 00:03:41;;;;;;;;;;;614.50;1689.60;;;;;;5092489;28;19974;-58
2022/07/22 00:06:07;;;;;;;;;;;614.60;1689.60;;;;;;5092159;28;19977;-59
2022/07/22 00:08:33;;;;;;;;;;;614.60;1689.60;;;;;;5092898;28;19915;-59
2022/07/22 00:10:58;;;;;;;;;;;614.60;1689.60;;;;;;5092365;28;19938;-59
2022/07/22 00:13:24;;;;;;;;;;;614.70;1689.60;;;;;;5092930;28;19962;-58
2022/07/22 00:15:50;;;;;;;;;;;614.60;1689.60;;;;;;5092438;28;20331;-59
2022/07/22 00:18:15;;;;;;;;;;;614.60;1689.60;;;;;;5092558;28;20011;-57
2022/07/22 00:20:42;;;;;;;;;;;614.60;1689.60;;;;;;5092369;28;19908;-59
2022/07/22 00:23:08;;;;;;;;;;;614.60;1689.60;;;;;;5092211;28;19915;-58
2022/07/22 00:25:34;;;;;;;;;;;;;;;;;;5092345;28;19909;-58
2022/07/22 00:28:00;;;;;;;;;;;;;;;;;;5092572;28;20003;-59
2022/07/22 00:30:26;;;;;;;;;;;;;;;;;;5092262;28;20456;-58
2022/07/22 00:32:52;;;;;;;;;;;;;;;;;;5092072;28;20291;-58
2022/07/22 00:35:18;;;;;;;;;;;;;;;;;;5092127;28;20370;-59
2022/07/22 00:37:43;;;;;;;;;;;;;;;;;;5092211;28;20366;-57
2022/07/22 00:40:09;;;;;;;;;;;;;;;;;;5091668;28;20383;-59
2022/07/22 00:42:35;;;;;;;;;;;614.60;1689.60;;;;;;5092098;28;19955;-58
2022/07/22 00:45:01;;;;;;;;;;;614.50;1689.60;;;;;;5091934;28;19908;-57
2022/07/22 00:47:27;;;;;;;;;;;;;;;;;;5092045;28;19915;-58
2022/07/22 00:49:53;;;;;;;;;;;;;;;;;;5091842;28;19912;-58
2022/07/22 00:52:19;;;;;;;;;;;;;;;;;;5091840;28;20107;-58
2022/07/22 00:54:44;;;;;;;;;;;;;;;;;;5091987;28;20393;-59
2022/07/22 00:57:10;;;;;;;;;;;;;;;;;;5091638;28;19924;-58
2022/07/22 00:59:36;;;;;;;;;;;589.70;1740.80;;;;;;5091790;28;19908;-59
2022/07/22 01:02:02;;;;;;;;;;;;;;;;;;5091553;28;19920;-58
2022/07/22 01:04:28;;;;;;;;;;;;;;;;;;5091772;28;19908;-58
2022/07/22 01:06:54;;;;;;;;;;;589.60;1740.80;;;;;;5091622;28;19908;-58
2022/07/22 01:09:19;;;;;;;;;;;589.30;1766.40;;;;;;5091421;28;19908;-56
2022/07/22 01:11:45;;;;;;;;;;;589.20;1792.00;;;;;;5091420;28;19919;-58
2022/07/22 01:14:11;;;;;;;;;;;589.20;1792.00;;;;;;5091385;28;19912;-58
2022/07/22 01:16:36;;;;;;;;;;;589.10;1792.00;;;;;;5090501;28;20350;-58
2022/07/22 01:19:02;;;;;;;;;;;589.10;1792.00;;;;;;5091787;28;19920;-58
2022/07/22 01:21:28;;;;;;;;;;;589.10;1792.00;;;;;;5091342;28;20004;-58
2022/07/22 01:23:53;;;;;;;;;;;589.10;1792.00;;;;;;5091285;28;19908;-58
2022/07/22 01:26:19;;;;;;;;;;;589.00;1792.00;;;;;;5091146;28;20265;-58
2022/07/22 01:28:45;;;;;;;;;;;589.00;1792.00;;;;;;5091263;28;19961;-58
2022/07/22 01:31:11;;;;;;;;;;;588.90;1817.60;;;;;;5091079;28;19915;-58
2022/07/22 01:33:37;;;;;;;;;;;588.90;1817.60;;;;;;5091405;28;19912;-58
2022/07/22 01:36:03;;;;;;;;;;;588.90;1817.60;;;;;;5091235;28;20439;-58
2022/07/22 01:38:29;;;;;;;;;;;588.80;1817.60;;;;;;5090914;28;19927;-58
2022/07/22 01:40:55;;;;;;;;;;;588.90;1817.60;;;;;;5090830;28;19908;-58
2022/07/22 01:43:21;;;;;;;;;;;588.90;1817.60;;;;;;5090693;28;20504;-57
2022/07/22 01:45:47;;;;;;;;;;;588.90;1817.60;;;;;;5091060;28;19908;-58
2022/07/22 01:48:13;;;;;;;;;;;588.90;1817.60;;;;;;5090962;28;19908;-58
2022/07/22 01:50:40;;;;;;;;;;;588.90;1817.60;;;;;;5090639;28;19920;-58
2022/07/22 01:53:05;;;;;;;;;;;588.90;1817.60;;;;;;5091049;28;19915;-58
2022/07/22 01:55:31;;;;;;;;;;;588.90;1817.60;;;;;;5090744;28;19991;-57
2022/07/22 01:57:57;;;;;;;;;;;589.00;1792.00;;;;;;5090487;28;19977;-58
2022/07/22 02:00:23;;;;;;;;;;;589.00;1792.00;;;;;;5090797;28;19928;-58
2022/07/22 02:02:48;;;;;;;;;;;588.90;1792.00;;;;;;5090582;28;19969;-58
2022/07/22 02:05:14;;;;;;;;;;;588.90;1792.00;;;;;;5090849;28;20324;-58
2022/07/22 02:07:39;;;;;;;;;;;588.90;1817.60;;;;;;5090489;28;19908;-58
2022/07/22 02:10:05;;;;;;;;;;;588.80;1817.60;;;;;;5090433;28;19909;-58
2022/07/22 02:12:31;;;;;;;;;;;564.10;1843.20;;;;;;5090627;28;19912;-58
2022/07/22 02:14:57;;;;;;;;;;;564.10;1843.20;;;;;;5090565;28;20012;-59
2022/07/22 02:17:23;;;;;;;;;;;564.10;1843.20;;;;;;5090607;28;19947;-59
2022/07/22 02:19:48;;;;;;;;;;;564.10;1817.60;;;;;;5090283;28;19916;-58
2022/07/22 02:22:14;;;;;;;;;;;564.10;1817.60;;;;;;5090496;28;19915;-58
2022/07/22 02:24:40;;;;;;;;;;;588.80;1792.00;;;;;;5090272;28;19908;-58
2022/07/22 02:27:05;;;;;;;;;;;588.90;1792.00;;;;;;5090601;28;20001;-58
2022/07/22 02:29:32;;;;;;;;;;;589.00;1766.40;;;;;;5094504;28;20008;-58
2022/07/22 02:31:58;;;;;;;;;;;589.20;1766.40;;;;;;5094599;28;19912;-58
2022/07/22 02:34:24;;;;;;;;;;;589.20;1766.40;;;;;;5094662;28;19908;-58
2022/07/22 02:36:49;;;;;;;;;;;589.30;1740.80;;;;;;5094206;28;19942;-58
2022/07/22 02:39:15;;;;;;;;;;;589.30;1740.80;;;;;;5094387;28;19939;-58
2022/07/22 02:41:40;;;;;;;;;;;589.30;1740.80;;;;;;5094142;28;19919;-58
2022/07/22 02:44:06;;;;;;;;;;;589.40;1740.80;;;;;;5094458;28;19912;-59
2022/07/22 02:46:32;;;;;;;;;;;589.20;1766.40;;;;;;5094472;28;19909;-58
2022/07/22 02:48:57;;;;;;;;;;;589.20;1766.40;;;;;;5094147;28;20273;-59
2022/07/22 02:51:23;;;;;;;;;;;589.10;1792.00;;;;;;5094254;28;20015;-59
2022/07/22 02:53:49;;;;;;;;;;;589.00;1792.00;;;;;;5094137;28;19999;-58
2022/07/22 02:56:15;;;;;;;;;;;589.00;1792.00;;;;;;5094022;28;19931;-58
2022/07/22 02:58:42;;;;;;;;;;;588.90;1817.60;;;;;;5093793;28;19955;-58
2022/07/22 03:01:07;;;;;;;;;;;588.90;1817.60;;;;;;5093935;28;20017;-58
2022/07/22 03:03:33;;;;;;;;;;;588.80;1817.60;;;;;;5094191;28;19916;-58
2022/07/22 03:05:59;;;;;;;;;;;588.80;1843.20;;;;;;5093871;28;19912;-57
2022/07/22 03:08:25;;;;;;;;;;;564.10;1817.60;;;;;;5093994;28;19908;-58
2022/07/22 03:10:51;;;;;;;;;;;588.80;1817.60;;;;;;5093502;28;19912;-56
2022/07/22 03:13:16;;;;;;;;;;;564.10;1843.20;;;;;;5093916;28;20009;-58
2022/07/22 03:15:42;;;;;;;;;;;564.10;1843.20;;;;;;5093728;28;19912;-57
2022/07/22 03:18:08;;;;;;;;;;;564.10;1843.20;;;;;;5093728;28;19916;-58
2022/07/22 03:20:33;;;;;;;;;;;564.00;1868.80;;;;;;5093985;28;19908;-58
2022/07/22 03:22:59;;;;;;;;;;;564.00;1868.80;;;;;;5093647;28;20282;-59
2022/07/22 03:25:24;;;;;;;;;;;563.90;1868.80;;;;;;5093594;28;19908;-58
2022/07/22 03:27:50;;;;;;;;;;;564.00;1843.20;;;;;;5093426;28;20342;-58
2022/07/22 03:30:16;;;;;;;;;;;564.10;1843.20;;;;;;5093484;28;19908;-58
2022/07/22 03:32:46;;;;;;;;;;;564.10;1868.80;;;;;;5093258;28;19961;-58
2022/07/22 03:35:12;;;;;;;;;;;564.10;1843.20;;;;;;5093505;28;19915;-56
2022/07/22 03:37:38;;;;;;;;;;;588.80;1843.20;;;;;;5093074;28;19916;-59
2022/07/22 03:40:04;;;;;;;;;;;588.80;1843.20;;;;;;5092331;28;19912;-58
2022/07/22 03:42:30;;;;;;;;;;;588.90;1817.60;;;;;;5093141;28;20354;-58
2022/07/22 03:44:55;;;;;;;;;;;588.90;1817.60;;;;;;5093330;28;19908;-58
2022/07/22 03:47:22;;;;;;;;;;;589.00;1817.60;;;;;;5092989;28;20007;-58
2022/07/22 03:49:48;;;;;;;;;;;589.10;1817.60;;;;;;5092965;28;19908;-59
2022/07/22 03:52:14;;;;;;;;;;;589.10;1817.60;;;;;;5093180;28;20041;-59
2022/07/22 03:54:40;;;;;;;;;;;589.20;1817.60;;;;;;5092957;28;19961;-58
2022/07/22 03:57:06;;;;;;;;;;;589.20;1817.60;;;;;;5093053;28;20274;-59
2022/07/22 03:59:31;;;;;;;;;;;589.20;1792.00;;;;;;5092885;28;19999;-59
2022/07/22 04:01:57;;;;;;;;;;;589.30;1792.00;;;;;;5092899;28;20306;-59
2022/07/22 04:04:23;;;;;;;;;;;589.40;1792.00;;;;;;5092774;28;20404;-58
2022/07/22 04:06:51;;;;;;;;;;;589.40;1792.00;;;;;;5092578;28;19911;-59
2022/07/22 04:09:17;;;;;;;;;;;589.50;1792.00;;;;;;5092653;28;19991;-59
2022/07/22 04:11:42;;;;;;;;;;;589.60;1792.00;;;;;;5092471;28;19995;-58
2022/07/22 04:14:08;;;;;;;;;;;589.60;1766.40;;;;;;5092429;28;19971;-59
2022/07/22 04:16:34;;;;;;;;;;;589.60;1766.40;;;;;;5092688;28;19908;-57
2022/07/22 04:19:01;;;;;;;;;;;589.70;1740.80;;;;;;5092664;28;19912;-58
2022/07/22 04:21:27;;;;;;;;;;;614.50;1740.80;;;;;;5092599;28;19929;-57
2022/07/22 04:23:52;;;;;;;;;;;614.60;1740.80;;;;;;5092352;28;19915;-58
2022/07/22 04:26:18;;;;;;;;;;;614.60;1740.80;;;;;;5092308;28;19995;-58
2022/07/22 04:28:44;;;;;;;;;;;614.60;1740.80;;;;;;5092481;28;19908;-59
2022/07/22 04:31:09;;;;;;;;;;;614.50;1766.40;;;;;;5091986;28;20319;-57
2022/07/22 04:33:35;;;;;;;;;;;614.50;1766.40;;;;;;5092413;28;19908;-57
2022/07/22 04:36:01;;;;;;;;;;;614.60;1766.40;;;;;;5092238;28;19916;-59
2022/07/22 04:38:26;;;;;;;;;;;614.70;1740.80;;;;;;5092193;28;19939;-58
2022/07/22 04:40:53;;;;;;;;;;;614.80;1715.20;;;;;;5091709;28;19965;-58
2022/07/22 04:43:18;;;;;;;;;;;615.20;1689.60;;;;;;5092039;28;19912;-57
2022/07/22 04:45:44;;;;;;;;;;;;;;;;;;5092156;28;19916;-58
2022/07/22 04:48:10;;;;;;;;;;;640.60;1638.40;;;;;;5091820;28;19908;-57
2022/07/22 04:50:36;;;;;;;;;;;665.60;1638.40;;;;;;5091943;28;19915;-58
2022/07/22 04:53:02;;;;;;;;;;;666.50;1561.60;;;;;;5091954;28;19951;-57
2022/07/22 04:55:27;;;;;;;;;;;717.20;1510.40;;;;;;5091691;28;20369;-58
2022/07/22 04:57:53;;;;;;;;;;;794.30;1331.20;;;;;;5091700;28;19920;-58
2022/07/22 05:00:19;;;;;;;;;;;845.40;1228.80;;;;;;5091468;28;19912;-58
2022/07/22 05:02:44;;;;;;;;;;;871.10;1152.00;;;;;;5091544;28;19951;-57
2022/07/22 05:05:10;;;;;;;;;;;896.60;1126.40;;;;;;5091540;28;20358;-58
2022/07/22 05:07:36;;;;;;;;;;;921.80;1126.40;;;;;;5091850;28;19909;-59
2022/07/22 05:10:02;;;;;;;;;;;922.40;1100.80;;;;;;5091208;28;19908;-59
2022/07/22 05:12:28;;;;;;;;;;;948.10;1024.00;;;;;;5091540;28;19916;-60
2022/07/22 05:14:53;;;;;;;;;;;973.50;998.40;;;;;;5091429;28;19915;-60
2022/07/22 05:17:19;;;;;;;;;;;973.60;1024.00;;;;;;5091077;28;19920;-60
2022/07/22 05:19:45;;;;;;;;;;;998.90;998.40;;;;;;5091419;28;20362;-59
2022/07/22 05:22:10;;;;;;;;;;;999.20;998.40;;;;;;5091321;28;19952;-61
2022/07/22 05:24:36;;;;;;;;;;;1049.60;972.80;;;;;;5091222;28;20274;-61
2022/07/22 05:27:02;;;;;;;;;;;1050.20;947.20;;;;;;5093337;28;20344;-60
2022/07/22 05:29:27;;;;;;;;;;;1075.20;947.20;;;;;;5091849;28;19919;-58
2022/07/22 05:31:53;;;;;;;;;;;1075.30;947.20;;;;;;5098035;28;19924;-57
2022/07/22 05:34:19;;;;;;;;;;;1075.70;921.60;;;;;;5099467;28;20721;-60
2022/07/22 05:36:44;;;;;;;;;;;1101.00;921.60;;;;;;5107576;28;20097;-58
2022/07/22 05:39:10;;;;;;;;;;;1101.20;896.00;;;;;;5111141;28;19912;-59
2022/07/22 05:41:37;;;;;;;;;;;1126.40;870.40;;;;;;5091106;28;19912;-60
2022/07/22 05:44:02;;;;;;;;;;;1126.70;870.40;;;;;;5091083;28;19959;-58
2022/07/22 05:46:28;;;;;;;;;;;1127.10;844.80;;;;;;5090950;28;19959;-58
2022/07/22 05:48:54;;;;;;;;;;;1101.40;870.40;;;;;;5090787;28;20362;-57
2022/07/22 05:51:20;;;;;;;;;;;1101.60;870.40;;;;;;5090596;28;19908;-58
2022/07/22 05:53:46;;;;;;;;;;;1101.60;870.40;;;;;;5090735;28;19953;-57
2022/07/22 05:56:11;;;;;;;;;;;1101.40;870.40;;;;;;5090589;28;19908;-57
2022/07/22 05:58:41;;;;;;;;;;;1101.10;896.00;;;;;;5090477;28;19938;-57
2022/07/22 06:01:06;;;;;;;;;;;1101.60;870.40;;;;;;5090649;28;19927;-57
2022/07/22 06:03:32;;;;;;;;;;;1127.30;870.40;;;;;;5090290;28;19909;-57
2022/07/22 06:05:58;;;;;;;;;;;1152.70;819.20;;;;;;5090610;28;19955;-58
2022/07/22 06:08:24;;;;;;;;;;;;;;;;;;5090719;28;20011;-57
2022/07/22 06:10:50;;;;;;;;;;;;;;;;;;5090388;28;19916;-57
2022/07/22 06:13:15;;;;;;;;;;;1152.90;793.60;;;;;;5090535;28;19941;-57
2022/07/22 06:15:41;;;;;;;;;;;1203.70;768.00;;;;;;5090302;28;19956;-57
2022/07/22 06:18:07;;;;;;;;;;;1203.40;793.60;;;;;;5090596;28;19916;-57
2022/07/22 06:20:32;;;;;;;;;;;1203.80;768.00;;;;;;5090730;28;19930;-57
2022/07/22 06:22:58;;;;;;;;;;;1228.90;768.00;;;;;;5090315;28;19908;-58
2022/07/22 06:25:24;;;;;;;;;;;1228.90;768.00;;;;;;5090577;28;19961;-57
2022/07/22 06:27:49;;;;;;;;;;;1228.90;768.00;;;;;;5090361;28;19965;-57
2022/07/22 06:30:15;;;;;;;;;;;1229.50;742.40;;;;;;5090437;28;20385;-58
2022/07/22 06:32:40;;;;;;;;;;;1229.40;742.40;;;;;;5090204;28;19912;-57
2022/07/22 06:35:06;;;;;;;;;;;1203.60;768.00;;;;;;5090331;28;19954;-58
2022/07/22 06:37:32;;;;;;;;;;;1152.70;819.20;;;;;;5090326;28;20061;-58
2022/07/22 06:39:57;;;;;;;;;;;1152.40;844.80;;;;;;5090178;28;19962;-58
2022/07/22 06:42:23;;;;;;;;;;;1178.30;768.00;;;;;;5090159;28;19959;-57
2022/07/22 06:44:49;;;;;;;;;;;1204.10;768.00;;;;;;5090100;28;19999;-58
2022/07/22 06:47:14;;;;;;;;;;;1254.60;768.00;;;;;;5090344;28;19908;-57
2022/07/22 06:49:40;;;;;;;;;;;1254.60;768.00;;;;;;5089949;28;20342;-58
2022/07/22 06:52:06;;;;;;;;;;;1255.30;716.80;;;;;;5090234;28;19915;-58
2022/07/22 06:54:31;;;;;;;;;;;1255.00;742.40;;;;;;5089976;28;20026;-58
2022/07/22 06:56:57;;;;;;;;;;;1280.40;742.40;;;;;;5089914;28;20010;-59
2022/07/22 06:59:23;;;;;;;;;;;1305.60;716.80;;;;;;5090123;28;19916;-58
2022/07/22 07:01:49;;;;;;;;;;;1306.20;691.20;;;;;;5089691;28;19931;-58
2022/07/22 07:04:15;;;;;;;;;;;1306.20;665.60;;;;;;5090253;28;20007;-58
2022/07/22 07:06:41;;;;;;;;;;;1305.90;691.20;;;;;;5089863;28;20389;-58
2022/07/22 07:09:07;;;;;;;;;;;1306.30;665.60;;;;;;5090036;28;19908;-58
2022/07/22 07:11:34;;;;;;;;;;;1331.20;691.20;;;;;;5090256;28;20289;-58
2022/07/22 07:13:59;;;;;;;;;;;1306.30;665.60;;;;;;5089938;28;19916;-58
2022/07/22 07:16:25;;;;;;;;;;;1331.70;665.60;;;;;;5093577;28;19908;-58
2022/07/22 07:18:51;;;;;;;;;;;1332.10;640.00;;;;;;5093533;28;19913;-58
2022/07/22 07:21:16;;;;;;;;;;;1331.90;640.00;;;;;;5093580;28;19908;-58
2022/07/22 07:23:42;;;;;;;;;;;1356.80;640.00;;;;;;5093777;28;19912;-58
2022/07/22 07:26:08;;;;;;;;;;;1331.40;640.00;;;;;;5093492;28;19954;-58
2022/07/22 07:28:33;;;;;;;;;;;1356.80;640.00;;;;;;5093483;28;19908;-59
2022/07/22 07:30:59;;;;;;;;;;;1356.90;665.60;;;;;;5093269;28;20003;-58
2022/07/22 07:33:24;;;;;;;;;;;1357.10;640.00;;;;;;5093480;28;19915;-58
2022/07/22 07:35:50;;;;;;;;;;;1332.10;614.40;;;;;;5093040;28;19915;-58
2022/07/22 07:38:16;;;;;;;;;;;1356.90;640.00;;;;;;5093076;28;19916;-58
2022/07/22 07:40:42;;;;;;;;;;;1357.40;640.00;;;;;;5093048;28;19912;-58
2022/07/22 07:43:07;;;;;;;;;;;1357.40;614.40;;;;;;5092923;28;20277;-59
2022/07/22 07:45:33;;;;;;;;;;;1357.20;614.40;;;;;;5093333;28;19908;-58
2022/07/22 07:47:59;;;;;;;;;;;1357.20;614.40;;;;;;5093142;28;19957;-58
2022/07/22 07:50:25;;;;;;;;;;;1357.20;614.40;;;;;;5093150;28;20367;-58
2022/07/22 07:52:50;;;;;;;;;;;1356.90;614.40;;;;;;5092828;28;19931;-58
2022/07/22 07:55:16;;;;;;;;;;;1357.10;640.00;;;;;;5093014;28;20350;-58
2022/07/22 07:57:43;;;;;;;;;;;1356.90;640.00;;;;;;5092817;28;19916;-58
2022/07/22 08:00:10;;;;;;;;;;;1356.90;614.40;;;;;;5092580;28;19915;-58
2022/07/22 08:02:36;;;;;;;;;;;1356.90;614.40;;;;;;5092942;28;19922;-58
2022/07/22 08:05:02;;;;;;;;;;;1356.90;614.40;;;;;;5093008;28;20328;-58
2022/07/22 08:07:29;;;;;;;;;;;1357.10;614.40;;;;;;5092683;28;19908;-58
2022/07/22 08:09:54;;;;;;;;;;;1357.10;614.40;;;;;;5092877;28;20316;-57
2022/07/22 08:12:20;;;;;;;;;;;1356.80;614.40;;;;;;5092400;28;19916;-58
2022/07/22 08:14:46;;;;;;;;;;;1357.10;614.40;;;;;;5092588;28;19958;-58
2022/07/22 08:17:12;;;;;;;;;;;1356.80;614.40;;;;;;5091990;28;19916;-56
2022/07/22 08:19:37;;;;;;;;;;;1331.60;614.40;;;;;;5092343;28;20266;-59
2022/07/22 08:22:03;;;;;;;;;;;1331.60;614.40;;;;;;5091172;28;19916;-57
2022/07/22 08:24:29;;;;;;;;;;;1305.60;665.60;;;;;;5091212;28;20315;-57
2022/07/22 08:26:54;;;;;;;;;;;1254.80;691.20;;;;;;5090715;28;19941;-57
2022/07/22 08:29:20;;;;;;;;;;;1203.40;716.80;;;;;;5090733;28;19940;-58
2022/07/22 08:31:46;;;;;;;;;;;1152.60;742.40;;;;;;5090957;28;19961;-56
2022/07/22 08:34:12;;;;;;;;;;;;;;;;;;5090697;28;20270;-58
2022/07/22 08:36:37;;;;;;;;;;;1126.40;819.20;;;;;;5090475;28;19998;-58
2022/07/22 08:39:03;;;;;;;;;;;1075.30;844.80;;;;;;5090894;28;19912;-57
2022/07/22 08:41:33;;;;;;;;;;;1050.20;870.40;;;;;;5090624;28;19920;-57
2022/07/22 08:43:59;;;;;;;;;;;1049.60;896.00;;;;;;5090774;28;19912;-57
2022/07/22 08:46:24;;;;;;;;;;;1049.60;921.60;;;;;;5090628;28;19960;-57
2022/07/22 08:48:50;;;;;;;;;;;1024.60;896.00;;;;;;5090348;28;19914;-57
2022/07/22 08:51:15;;;;;;;;;;;999.20;947.20;;;;;;5090472;28;19955;-58
2022/07/22 08:53:41;;;;;;;;;;;1024.00;921.60;;;;;;5087453;28;19908;-56
2022/07/22 08:56:07;;;;;;;;;;;999.20;947.20;;;;;;5090624;28;19977;-56
2022/07/22 08:58:32;;;;;;;;;;;999.20;947.20;;;;;;5090671;28;19939;-57
2022/07/22 09:01:05;;;;;;;;;;;999.10;947.20;;;;;;5090227;28;20298;-58
2022/07/22 09:03:31;;;;;;;;;;;999.00;947.20;;;;;;5090427;28;19916;-56
2022/07/22 09:05:57;;;;;;;;;;;999.10;947.20;;;;;;5090270;28;20274;-56
2022/07/22 09:08:22;;;;;;;;;;;999.00;947.20;;;;;;5090260;28;19909;-57
2022/07/22 09:10:48;;;;;;;;;;;999.00;947.20;;;;;;5089765;28;19919;-55
2022/07/22 09:13:14;;;;;;;;;;;999.10;947.20;;;;;;5090282;28;19916;-57
2022/07/22 09:16:00;;;;;;;;;;;998.80;947.20;;;;;;5089815;28;19912;-57
2022/07/22 09:18:26;;;;;;;;;;;;;;;;;;5087598;28;19922;-56
2022/07/22 09:20:52;;;;;;;;;;;;;;;;;;5089732;28;19912;-55
2022/07/22 09:23:20;;;;;;;;;;;;;;;;;;5089679;28;19915;-60
2022/07/22 09:25:46;;;;;;;;;;;998.90;947.20;;;;;;5089878;28;19955;-57
2022/07/22 09:28:14;;;;;;;;;;;998.70;947.20;;;;;;5089744;28;19970;-57
2022/07/22 09:30:45;;;;;;;;;;;998.50;947.20;;;;;;5089716;28;19912;-58
2022/07/22 09:33:11;;;;;;;;;;;998.50;947.20;;;;;;5089587;28;19939;-57
2022/07/22 09:35:38;;;;;;;;;;;973.70;947.20;;;;;;5089704;28;20380;-58
2022/07/22 09:38:05;;;;;;;;;;;973.70;921.60;;;;;;5088910;28;20354;-60
2022/07/22 09:40:32;;;;;;;;;;;973.60;921.60;;;;;;5089540;28;20346;-58
2022/07/22 09:43:02;;;;;;;;;;;973.70;921.60;;;;;;5089146;28;19923;-58
2022/07/22 09:45:28;;;;;;;;;;;973.60;947.20;;;;;;5088665;28;20298;-59
2022/07/22 09:47:54;;;;;;;;;;;973.30;947.20;;;;;;5089332;28;20373;-56
2022/07/22 09:50:21;;;;;;;;;;;973.40;947.20;;;;;;5089210;28;19940;-58
2022/07/22 09:52:48;;;;;;;;;;;973.50;947.20;;;;;;5089190;28;20355;-58
2022/07/22 09:55:15;;;;;;;;;;;973.50;947.20;;;;;;5089626;28;19908;-57
2022/07/22 09:57:40;;;;;;;;;;;973.60;947.20;;;;;;5089051;28;19923;-58
2022/07/22 10:00:08;;;;;;;;;;;973.60;921.60;;;;;;5089336;28;19908;-57
2022/07/22 10:02:36;;;;;;;;;;;973.40;947.20;;;;;;5089296;28;19942;-58
2022/07/22 10:05:03;;;;;;;;;;;973.30;921.60;;;;;;5089330;28;20006;-56
2022/07/22 10:07:28;;;;;;;;;;;973.10;921.60;;;;;;5089183;28;19973;-58
2022/07/22 10:09:54;;;;;;;;;;;972.90;921.60;;;;;;5089186;28;19912;-56
2022/07/22 10:12:20;;;;;;;;;;;948.00;921.60;;;;;;5089194;28;19916;-58
2022/07/22 10:14:46;;;;;;;;;;;947.80;896.00;;;;;;5089573;28;19920;-56
2022/07/22 10:17:15;;;;;;;;;;;947.90;921.60;;;;;;5088762;28;20005;-57
2022/07/22 10:19:41;;;;;;;;;;;947.70;921.60;;;;;;5088804;28;19969;-57
2022/07/22 10:22:25;;;;;;;;;;;947.80;947.20;;;;;;5088966;28;20350;-57
2022/07/22 10:25:00;;;;;;;;;;;947.90;947.20;;;;;;5083688;28;19908;-58
2022/07/22 10:27:44;;;;;;;;;;;948.10;947.20;;;;;;5087666;28;19923;-57
2022/07/22 10:30:10;;;;;;;;;;;972.80;947.20;;;;;;5087374;28;19916;-58
2022/07/22 10:32:36;;;;;;;;;;;948.10;921.60;;;;;;5087526;28;19935;-57
2022/07/22 10:35:03;;;;;;;;;;;972.80;947.20;;;;;;5087358;28;19935;-58
2022/07/22 10:37:35;;;;;;;;;;;948.10;896.00;;;;;;5086031;28;20392;-58
2022/07/22 10:40:10;;;;;;;;;;;947.70;896.00;;;;;;5086537;28;19912;-57
2022/07/22 10:42:55;;;;;;;;;;;947.70;921.60;;;;;;5086736;28;19923;-58
2022/07/22 10:45:21;;;;;;;;;;;947.40;921.60;;;;;;5087006;28;20062;-56
2022/07/22 10:47:57;;;;;;;;;;;947.40;921.60;;;;;;5087941;28;20007;-57
2022/07/22 10:50:37;;;;;;;;;;;947.30;921.60;;;;;;5092024;28;19999;-57
2022/07/22 10:53:04;;;;;;;;;;;947.40;921.60;;;;;;5092689;28;19908;-58
2022/07/22 10:55:29;;;;;;;;;;;947.50;921.60;;;;;;5092753;28;20377;-57
2022/07/22 10:57:55;;;;;;;;;;;947.60;921.60;;;;;;5094876;28;19917;-56
2022/07/22 11:00:21;;;;;;;;;;;947.40;947.20;;;;;;5093806;28;19966;-57
2022/07/22 11:02:46;;;;;;;;;;;947.40;947.20;;;;;;5093154;28;19912;-57
2022/07/22 11:05:12;;;;;;;;;;;947.30;921.60;;;;;;5093290;28;19944;-56
2022/07/22 11:07:41;;;;;;;;;;;922.50;921.60;;;;;;5093439;28;19915;-56
2022/07/22 11:10:10;;;;;;;;;;;922.30;947.20;;;;;;5093319;28;20007;-57
2022/07/22 11:12:36;;;;;;;;;;;922.40;921.60;;;;;;5093326;28;20362;-57
2022/07/22 11:15:02;;;;;;;;;;;922.40;921.60;;;;;;5093129;28;19915;-56
2022/07/22 11:17:29;;;;;;;;;;;922.00;921.60;;;;;;5092905;28;20345;-58
2022/07/22 11:19:55;;;;;;;;;;;922.40;972.80;;;;;;5092973;28;19912;-57
2022/07/22 11:22:21;;;;;;;;;;;947.20;921.60;;;;;;5093083;28;20061;-57
2022/07/22 11:24:48;;;;;;;;;;;947.30;896.00;;;;;;5092987;28;20354;-58
2022/07/22 11:27:15;;;;;;;;;;;947.40;896.00;;;;;;5093873;28;20316;-57
2022/07/22 11:29:46;;;;;;;;;;;922.20;896.00;;;;;;5092420;28;19912;-58
2022/07/22 11:32:12;;;;;;;;;;;922.40;921.60;;;;;;5090918;28;20361;-58
2022/07/22 11:34:42;;;;;;;;;;;947.40;947.20;;;;;;5092725;28;20018;-58
2022/07/22 11:37:08;;;;;;;;;;;947.20;896.00;;;;;;5090425;28;19912;-58
2022/07/22 11:39:33;;;;;;;;;;;947.40;921.60;;;;;;5093344;28;19915;-58
2022/07/22 11:42:02;;;;;;;;;;;947.30;896.00;;;;;;5093109;28;19912;-58
2022/07/22 11:44:32;;;;;;;;;;;922.40;896.00;;;;;;5093131;28;19913;-59
2022/07/22 11:46:58;;;;;;;;;;;922.50;921.60;;;;;;5093203;28;19907;-58
2022/07/22 11:49:25;;;;;;;;;;;947.20;921.60;;;;;;5093194;28;20027;-56
2022/07/22 11:51:51;;;;;;;;;;;947.30;921.60;;;;;;5092890;28;19908;-58
2022/07/22 11:54:16;;;;;;;;;;;947.20;896.00;;;;;;5093062;28;19909;-56
2022/07/22 11:56:42;;;;;;;;;;;922.40;896.00;;;;;;5092045;28;19985;-56
2022/07/22 11:59:12;;;;;;;;;;;947.30;896.00;;;;;;5092450;28;20438;-58
2022/07/22 12:01:37;;;;;;;;;;;947.20;896.00;;;;;;5091791;28;19930;-57
2022/07/22 12:04:07;;;;;;;;;;;947.20;896.00;;;;;;5093022;28;20002;-58
2022/07/22 12:06:37;;;;;;;;;;;947.30;921.60;;;;;;5093049;28;20308;-57
2022/07/22 12:09:02;;;;;;;;;;;922.40;896.00;;;;;;5092937;28;20010;-57
2022/07/22 12:11:28;;;;;;;;;;;947.30;896.00;;;;;;5092378;28;19959;-58
2022/07/22 12:13:54;;;;;;;;;;;947.20;896.00;;;;;;5092840;28;19927;-58
2022/07/22 12:16:27;;;;;;;;;;;947.30;896.00;;;;;;5097878;28;20408;-58
2022/07/22 12:18:56;;;;;;;;;;;947.30;896.00;;;;;;5098623;28;19920;-57
2022/07/22 12:21:23;;;;;;;;;;;947.30;896.00;;;;;;5101749;28;19957;-57
2022/07/22 12:23:50;;;;;;;;;;;922.50;870.40;;;;;;5103114;28;19998;-56
2022/07/22 12:26:16;;;;;;;;;;;947.20;870.40;;;;;;5103149;28;19908;-56
2022/07/22 12:28:41;;;;;;;;;;;922.50;896.00;;;;;;5099682;28;19912;-57
2022/07/22 12:31:07;;;;;;;;;;;947.20;896.00;;;;;;5099388;28;20357;-57
2022/07/22 12:33:32;;;;;;;;;;;922.50;896.00;;;;;;5091799;28;19912;-57
2022/07/22 12:36:03;;;;;;;;;;;947.30;896.00;;;;;;5091786;28;19912;-58
2022/07/22 12:38:28;;;;;;;;;;;922.50;896.00;;;;;;5092893;28;19924;-58
2022/07/22 12:40:54;;;;;;;;;;;922.50;896.00;;;;;;5091335;28;19912;-57
2022/07/22 12:43:23;;;;;;;;;;;922.50;896.00;;;;;;5097854;28;19916;-57
2022/07/22 12:45:49;;;;;;;;;;;947.30;921.60;;;;;;5092115;28;19953;-56
2022/07/22 12:48:14;;;;;;;;;;;947.30;870.40;;;;;;5102326;28;19916;-56
2022/07/22 12:50:41;;;;;;;;;;;947.40;870.40;;;;;;5100621;28;20326;-57
2022/07/22 12:53:07;;;;;;;;;;;947.70;896.00;;;;;;5101913;28;19926;-57
2022/07/22 12:55:33;;;;;;;;;;;947.70;870.40;;;;;;5097177;28;20435;-57
2022/07/22 12:57:59;;;;;;;;;;;947.40;896.00;;;;;;5091890;28;19926;-57
2022/07/22 13:00:27;;;;;;;;;;;947.50;870.40;;;;;;5091852;28;19912;-56
2022/07/22 13:02:53;;;;;;;;;;;947.30;870.40;;;;;;5091631;28;19908;-57
2022/07/22 13:05:18;;;;;;;;;;;947.50;870.40;;;;;;5091587;28;19908;-58
2022/07/22 13:07:44;;;;;;;;;;;947.50;870.40;;;;;;5091718;28;19914;-57
2022/07/22 13:10:10;;;;;;;;;;;947.30;844.80;;;;;;5091465;28;20273;-57
2022/07/22 13:12:36;;;;;;;;;;;947.30;870.40;;;;;;5091709;28;19915;-55
2022/07/22 13:15:02;;;;;;;;;;;947.40;870.40;;;;;;5091429;28;19908;-57
2022/07/22 13:17:28;;;;;;;;;;;947.40;870.40;;;;;;5091296;28;20010;-57
2022/07/22 13:19:53;;;;;;;;;;;947.50;896.00;;;;;;5091535;28;19912;-56
2022/07/22 13:22:19;;;;;;;;;;;947.30;870.40;;;;;;5091121;28;19965;-57
2022/07/22 13:24:45;;;;;;;;;;;947.40;870.40;;;;;;5091369;28;19970;-56
2022/07/22 13:27:10;;;;;;;;;;;947.50;870.40;;;;;;5088983;28;19908;-56
2022/07/22 13:29:36;;;;;;;;;;;947.30;844.80;;;;;;5090003;28;19955;-55
2022/07/22 13:32:01;;;;;;;;;;;947.20;819.20;;;;;;5089720;28;19908;-56
2022/07/22 13:34:27;;;;;;;;;;;947.30;870.40;;;;;;5089981;28;20798;-56
2022/07/22 13:36:52;;;;;;;;;;;947.20;844.80;;;;;;5089588;28;19908;-56
2022/07/22 13:39:18;;;;;;;;;;;947.40;844.80;;;;;;5088815;28;19934;-56
2022/07/22 13:41:44;;;;;;;;;;;947.40;844.80;;;;;;5089330;28;19912;-56
2022/07/22 13:44:09;;;;;;;;;;;947.50;844.80;;;;;;5089191;28;19916;-56
2022/07/22 13:46:35;;;;;;;;;;;947.50;819.20;;;;;;5089401;28;19999;-56
2022/07/22 13:49:01;;;;;;;;;;;947.30;844.80;;;;;;5089319;28;19970;-57